Nsu Inspire — 3FID5 — position and weather

sailwx.info

Track history (hours):
 
Tides and Currents Weather Stations Pressure Air Temp Water Temp Dewpoint Dewpoint Depression Visibility Wind Speed Wind Dir Waves Ship Positions

Nsu Inspire

Last reported at 2015-Feb-05 02:30 UTC. Time now 2015-Mar-03 20:14 UTC.
Position N 34°53' E 140°05'.
Warning: this ship's position is 26 days out of date.

Length 330 m; draft 14.3 m.

Type: Cargo ship. MMSI: 372998000.

Date/timePositionNaut miles runAvg speedWind from/ knotsBaromVisibWave heightAir tempDewpointWater temp
2015-Feb-05 02:30N 34°53' E 140°05'1311.7
2015-Feb-05 01:21N 34°49' E 139°49'1012.6
2015-Feb-05 00:32N 34°56' E 139°40'1313.2
2015-Feb-04 23:33N 35°08' E 139°45'1111.1
2015-Feb-04 22:33N 35°19' E 139°43'7 7.1
2015-Feb-04 21:33N 35°23' E 139°50'2 1.4
2015-Feb-04 20:31N 35°22' E 139°52'0 0.0
2015-Feb-04 19:31N 35°22' E 139°52'0 0.0
2015-Feb-04 18:31N 35°22' E 139°52'0 0.0
2015-Feb-04 17:28N 35°22' E 139°52'0 0.0
2015-Feb-04 16:28N 35°22' E 139°52'0 0.0
2015-Feb-04 15:31N 35°22' E 139°52'0 0.0
2015-Feb-04 14:31N 35°22' E 139°52'0 0.0
2015-Feb-04 13:31N 35°22' E 139°52'0 0.0
2015-Feb-04 12:31N 35°22' E 139°52'0 0.0
2015-Feb-04 11:31N 35°22' E 139°52'0 0.0
2015-Feb-04 10:22N 35°22' E 139°52'0 0.0
2015-Feb-04 09:31N 35°22' E 139°52'0 0.0
2015-Feb-04 08:31N 35°22' E 139°52'0 0.0
2015-Feb-04 07:19N 35°22' E 139°52'0 0.0
2015-Feb-04 06:25N 35°22' E 139°52'0 0.0
2015-Feb-04 05:31N 35°22' E 139°52'0 0.0
2015-Feb-04 04:31N 35°22' E 139°52'0 0.0
2015-Feb-04 03:28N 35°22' E 139°52'0 0.0
2015-Feb-04 02:31N 35°22' E 139°52'0 0.0
2015-Feb-04 01:31N 35°22' E 139°52'0 0.0
2015-Feb-04 00:31N 35°22' E 139°52'0 0.0
2015-Feb-03 23:31N 35°22' E 139°52'0 0.0
2015-Feb-03 22:31N 35°22' E 139°52'0 0.0
2015-Feb-03 21:16N 35°22' E 139°52'0 0.0
2015-Feb-03 20:28N 35°22' E 139°52'0 0.0
2015-Feb-03 19:28N 35°22' E 139°52'0 0.0
2015-Feb-03 18:28N 35°22' E 139°52'0 0.0
2015-Feb-03 17:31N 35°22' E 139°52'0 0.0
2015-Feb-03 16:31N 35°22' E 139°52'0 0.0
2015-Feb-03 15:31N 35°22' E 139°52'0 0.0
2015-Feb-03 14:31N 35°22' E 139°52'0 0.0
2015-Feb-03 13:25N 35°22' E 139°52'0 0.0
2015-Feb-03 12:28N 35°22' E 139°52'0 0.0
2015-Feb-03 11:31N 35°22' E 139°52'0 0.0
2015-Feb-03 10:31N 35°22' E 139°52'0 0.0
2015-Feb-03 09:25N 35°22' E 139°52'0 0.0
2015-Feb-03 08:31N 35°22' E 139°52'0 0.0
2015-Feb-03 07:28N 35°22' E 139°52'0 0.0
2015-Feb-03 06:31N 35°22' E 139°52'0 0.0
2015-Feb-03 05:25N 35°22' E 139°52'0 0.0
2015-Feb-03 04:25N 35°22' E 139°52'0 0.0
2015-Feb-03 03:28N 35°22' E 139°52'0 0.0
2015-Feb-03 02:31N 35°22' E 139°52'0 0.0
2015-Feb-03 01:31N 35°22' E 139°52'0 0.0
2015-Feb-03 00:28N 35°22' E 139°52'0 0.0
2015-Feb-02 23:28N 35°22' E 139°52'0 0.0
2015-Feb-02 22:16N 35°22' E 139°52'0 0.0
2015-Feb-02 21:31N 35°22' E 139°52'0 0.0
2015-Feb-02 20:31N 35°22' E 139°52'0 0.0
2015-Feb-02 19:31N 35°22' E 139°52'0 0.0
2015-Feb-02 18:31N 35°22' E 139°52'1 0.8
2015-Feb-02 17:33N 35°23' E 139°51'4 3.5
2015-Feb-02 16:33N 35°26' E 139°49'0 0.2
2015-Feb-02 15:25N 35°26' E 139°49'0 0.1
2015-Feb-02 14:28N 35°26' E 139°49'0 0.0
2015-Feb-02 13:31N 35°26' E 139°49'0 0.0
2015-Feb-02 12:31N 35°26' E 139°49'0 0.0
2015-Feb-02 11:31N 35°26' E 139°49'0 0.0
2015-Feb-02 10:31N 35°26' E 139°49'0 0.0
2015-Feb-02 09:31N 35°26' E 139°49'0 0.0
2015-Feb-02 08:31N 35°26' E 139°49'0 0.0
2015-Feb-02 07:31N 35°26' E 139°49'0 0.1
2015-Feb-02 06:31N 35°26' E 139°49'0 0.0
2015-Feb-02 05:31N 35°26' E 139°49'0 0.0
2015-Feb-02 04:09N 35°26' E 139°49'0 0.0
2015-Feb-02 03:32N 35°26' E 139°49'0 0.0
2015-Feb-02 02:32N 35°26' E 139°49'0 0.0
2015-Feb-02 01:34N 35°26' E 139°49'0 0.0
2015-Feb-02 00:32N 35°26' E 139°49'0 0.0
2015-Feb-01 23:33N 35°26' E 139°49'0 0.0
2015-Feb-01 22:33N 35°26' E 139°49'0 0.0
2015-Feb-01 21:33N 35°26' E 139°49'0 0.0
2015-Feb-01 20:33N 35°26' E 139°49'0 0.0
2015-Feb-01 19:31N 35°26' E 139°49'0 0.0
2015-Feb-01 18:30N 35°26' E 139°49'0 0.1
2015-Feb-01 17:34N 35°26' E 139°49'0 0.0
2015-Feb-01 16:33N 35°26' E 139°49'0 0.0
2015-Feb-01 15:34N 35°26' E 139°49'0 0.0
2015-Feb-01 14:25N 35°26' E 139°49'0 0.1
2015-Feb-01 13:33N 35°26' E 139°49'0 0.1
2015-Feb-01 12:31N 35°26' E 139°49'0 0.1
2015-Feb-01 11:33N 35°26' E 139°49'0 0.0
2015-Feb-01 10:32N 35°26' E 139°49'0 0.0
2015-Feb-01 09:33N 35°26' E 139°49'0 0.0
2015-Feb-01 08:33N 35°26' E 139°49'0 0.1
2015-Feb-01 07:33N 35°26' E 139°49'0 0.0
2015-Feb-01 06:33N 35°26' E 139°49'0 0.1
2015-Feb-01 05:33N 35°26' E 139°49'0 0.0
2015-Feb-01 04:33N 35°26' E 139°49'0 0.0
2015-Feb-01 03:27N 35°26' E 139°49'0 0.0
2015-Feb-01 02:33N 35°26' E 139°49'0 0.0
2015-Feb-01 01:33N 35°26' E 139°49'0 0.0
2015-Feb-01 00:30N 35°26' E 139°49'0 0.1
2015-Jan-31 23:33N 35°26' E 139°49'0 0.1
2015-Jan-31 22:34N 35°26' E 139°49'0 0.0
2015-Jan-31 21:25N 35°26' E 139°49'0 0.0
2015-Jan-31 20:27N 35°26' E 139°49'0 0.1
2015-Jan-31 19:33N 35°26' E 139°49'0 0.0
2015-Jan-31 18:27N 35°26' E 139°49'0 0.0
2015-Jan-31 17:28N 35°26' E 139°49'0 0.1
2015-Jan-31 16:25N 35°26' E 139°50'0 0.0
2015-Jan-31 15:34N 35°26' E 139°50'0 0.0
2015-Jan-31 14:22N 35°26' E 139°50'0 0.1
2015-Jan-31 13:34N 35°26' E 139°49'0 0.1
2015-Jan-31 12:33N 35°26' E 139°49'0 0.0
2015-Jan-31 11:31N 35°26' E 139°49'0 0.0
2015-Jan-31 10:33N 35°26' E 139°49'0 0.0
2015-Jan-31 09:33N 35°26' E 139°49'0 0.0
2015-Jan-31 08:33N 35°26' E 139°49'0 0.0
2015-Jan-31 07:30N 35°26' E 139°49'0 0.1
2015-Jan-31 06:32N 35°26' E 139°49'0 0.0
2015-Jan-31 05:33N 35°26' E 139°49'0 0.0
2015-Jan-31 04:32N 35°26' E 139°49'0 0.0
2015-Jan-31 03:32N 35°26' E 139°49'0 0.0
2015-Jan-31 02:32N 35°26' E 139°49'0 0.0
2015-Jan-31 01:32N 35°26' E 139°49'0 0.1
2015-Jan-31 00:32N 35°26' E 139°49'0 0.0
2015-Jan-30 22:26N 35°26' E 139°49'0 0.0
2015-Jan-30 21:32N 35°26' E 139°49'0 0.0
2015-Jan-30 20:32N 35°26' E 139°49'0 0.0
2015-Jan-30 19:32N 35°26' E 139°49'0 0.0
2015-Jan-30 18:26N 35°26' E 139°49'0 0.1
2015-Jan-30 17:32N 35°26' E 139°49'0 0.0
2015-Jan-30 16:32N 35°26' E 139°49'0 0.0
2015-Jan-30 15:32N 35°26' E 139°49'0 0.0
2015-Jan-30 14:32N 35°26' E 139°49'0 0.0
2015-Jan-30 13:32N 35°26' E 139°49'0 0.0
2015-Jan-30 12:29N 35°26' E 139°49'0 0.0
2015-Jan-30 11:29N 35°26' E 139°49'0 0.0
2015-Jan-30 10:32N 35°26' E 139°49'0 0.0
2015-Jan-30 09:32N 35°26' E 139°49'0 0.0
2015-Jan-30 08:32N 35°26' E 139°49'0 0.0
2015-Jan-30 07:32N 35°26' E 139°49'0 0.0
2015-Jan-30 06:32N 35°26' E 139°49'0 0.0
2015-Jan-30 05:32N 35°26' E 139°49'0 0.1
2015-Jan-30 04:32N 35°26' E 139°49'0 0.0
2015-Jan-30 03:32N 35°26' E 139°49'0 0.0
2015-Jan-30 02:26N 35°26' E 139°49'0 0.1
2015-Jan-30 01:32N 35°26' E 139°49'0 0.0
2015-Jan-30 00:32N 35°26' E 139°49'0 0.0
2015-Jan-29 23:32N 35°26' E 139°49'0 0.0
2015-Jan-29 22:32N 35°26' E 139°49'0 0.0
2015-Jan-29 21:32N 35°26' E 139°49'0 0.0
2015-Jan-29 20:32N 35°26' E 139°49'0 0.0
2015-Jan-29 19:32N 35°26' E 139°49'0 0.0
2015-Jan-29 18:32N 35°26' E 139°49'0 0.0
2015-Jan-29 17:32N 35°26' E 139°49'0 0.0
2015-Jan-29 16:32N 35°26' E 139°49'0 0.1
2015-Jan-29 15:32N 35°26' E 139°49'0 0.0
2015-Jan-29 14:32N 35°26' E 139°49'0 0.0
2015-Jan-29 13:23N 35°26' E 139°49'0 0.0
2015-Jan-29 12:32N 35°26' E 139°49'0 0.0
2015-Jan-29 11:29N 35°26' E 139°49'0 0.0
2015-Jan-29 10:32N 35°26' E 139°49'0 0.0
2015-Jan-29 09:29N 35°26' E 139°49'0 0.0
2015-Jan-29 08:29N 35°26' E 139°49'0 0.0
2015-Jan-29 07:32N 35°26' E 139°49'0 0.0
2015-Jan-29 06:32N 35°26' E 139°49'0 0.0
2015-Jan-29 05:32N 35°26' E 139°49'0 0.0
2015-Jan-29 04:32N 35°26' E 139°49'0 0.0
2015-Jan-29 03:11N 35°26' E 139°49'0 0.0
2015-Jan-29 02:29N 35°26' E 139°49'0 0.0
2015-Jan-29 01:32N 35°26' E 139°49'0 0.0
2015-Jan-29 00:32N 35°26' E 139°49'0 0.0
2015-Jan-28 23:32N 35°26' E 139°49'0 0.0
2015-Jan-28 22:32N 35°26' E 139°49'0 0.0
2015-Jan-28 21:32N 35°26' E 139°49'0 0.0
2015-Jan-28 20:32N 35°26' E 139°49'0 0.0
2015-Jan-28 19:32N 35°26' E 139°49'0 0.0
2015-Jan-28 18:32N 35°26' E 139°49'0 0.0
2015-Jan-28 17:32N 35°26' E 139°49'0 0.1
2015-Jan-28 16:32N 35°26' E 139°49'0 0.0
2015-Jan-28 15:29N 35°26' E 139°49'0 0.0
2015-Jan-28 14:29N 35°26' E 139°49'0 0.1
2015-Jan-28 13:32N 35°26' E 139°49'0 0.0
2015-Jan-28 12:32N 35°26' E 139°49'0 0.0
2015-Jan-28 11:20N 35°26' E 139°49'0 0.0
2015-Jan-28 10:32N 35°26' E 139°49'0 0.0
2015-Jan-28 09:29N 35°26' E 139°49'0 0.0
2015-Jan-28 08:32N 35°26' E 139°49'0 0.0
2015-Jan-28 07:32N 35°26' E 139°49'0 0.0
2015-Jan-28 06:32N 35°26' E 139°49'0 0.0
2015-Jan-28 05:32N 35°26' E 139°49'0 0.0
2015-Jan-28 04:23N 35°26' E 139°49'0 0.0
2015-Jan-28 03:32N 35°26' E 139°49'0 0.0
2015-Jan-28 02:26N 35°26' E 139°49'0 0.1
2015-Jan-28 01:32N 35°26' E 139°49'0 0.0
2015-Jan-28 00:32N 35°26' E 139°49'0 0.0
2015-Jan-27 23:32N 35°26' E 139°49'0 0.0
2015-Jan-27 22:32N 35°26' E 139°49'0 0.1
2015-Jan-27 21:32N 35°26' E 139°49'0 0.1
2015-Jan-27 20:32N 35°26' E 139°49'0 0.0
2015-Jan-27 19:32N 35°26' E 139°49'0 0.0
2015-Jan-27 18:32N 35°26' E 139°49'0 0.0
2015-Jan-27 17:29N 35°26' E 139°49'0 0.1
2015-Jan-27 16:32N 35°26' E 139°49'0 0.0
2015-Jan-27 15:32N 35°26' E 139°49'0 0.0
2015-Jan-27 14:32N 35°26' E 139°49'0 0.0
2015-Jan-27 13:32N 35°26' E 139°49'0 0.0
2015-Jan-27 12:32N 35°26' E 139°49'0 0.2
2015-Jan-27 11:32N 35°26' E 139°50'0 0.2
2015-Jan-27 10:32N 35°26' E 139°50'0 0.2
2015-Jan-27 09:32N 35°26' E 139°49'0 0.1
2015-Jan-27 08:32N 35°26' E 139°49'0 0.1
2015-Jan-27 07:29N 35°26' E 139°49'0 0.1
2015-Jan-27 06:32N 35°26' E 139°49'0 0.1
2015-Jan-27 05:32N 35°26' E 139°49'0 0.0
2015-Jan-27 04:32N 35°26' E 139°49'0 0.0
2015-Jan-27 03:29N 35°26' E 139°49'0 0.1
2015-Jan-27 02:26N 35°26' E 139°49'0 0.0
2015-Jan-27 01:20N 35°26' E 139°49'0 0.0
2015-Jan-27 00:32N 35°26' E 139°49'0 0.0
2015-Jan-26 23:32N 35°26' E 139°49'0 0.0
2015-Jan-26 22:29N 35°26' E 139°49'0 0.1
2015-Jan-26 21:32N 35°26' E 139°49'0 0.0
2015-Jan-26 20:29N 35°26' E 139°49'0 0.0
2015-Jan-26 19:32N 35°26' E 139°49'0 0.0
2015-Jan-26 18:32N 35°26' E 139°49'0 0.0
2015-Jan-26 17:29N 35°26' E 139°49'0 0.1
2015-Jan-26 16:32N 35°26' E 139°49'0 0.0
2015-Jan-26 15:32N 35°26' E 139°49'0 0.0
2015-Jan-26 14:29N 35°26' E 139°49'0 0.0
2015-Jan-26 13:26N 35°26' E 139°49'0 0.2
2015-Jan-26 12:32N 35°26' E 139°50'0 0.1
2015-Jan-26 11:32N 35°26' E 139°50'0 0.1
2015-Jan-26 10:32N 35°26' E 139°49'0 0.0
2015-Jan-26 09:32N 35°26' E 139°49'0 0.0
2015-Jan-26 08:26N 35°26' E 139°49'0 0.1
2015-Jan-26 07:32N 35°26' E 139°49'0 0.2
2015-Jan-26 06:29N 35°26' E 139°49'0 0.1
2015-Jan-26 05:32N 35°26' E 139°49'0 0.1
2015-Jan-26 04:32N 35°26' E 139°49'0 0.0
2015-Jan-26 03:32N 35°26' E 139°49'0 0.0
2015-Jan-26 02:32N 35°26' E 139°49'  
Track history (hours):
 
Tides and Currents Weather Stations Pressure Air Temp Water Temp Dewpoint Dewpoint Depression Visibility Wind Speed Wind Dir Waves Ship Positions

Nsu Inspire

Last reported at 2015-Feb-05 02:30 UTC. Time now 2015-Mar-03 20:14 UTC.
Position N 34°53' E 140°05'.
Warning: this ship's position is 26 days out of date.

Length 330 m; draft 14.3 m.

Type: Cargo ship. MMSI: 372998000.

Date/timePositionNaut miles runAvg speedWind from/ knotsBaromVisibWave heightAir tempDewpointWater temp
2015-Feb-05 02:30N 34°53' E 140°05'1311.7
2015-Feb-05 01:21N 34°49' E 139°49'1012.6
2015-Feb-05 00:32N 34°56' E 139°40'1313.2
2015-Feb-04 23:33N 35°08' E 139°45'1111.1
2015-Feb-04 22:33N 35°19' E 139°43'7 7.1
2015-Feb-04 21:33N 35°23' E 139°50'2 1.4
2015-Feb-04 20:31N 35°22' E 139°52'0 0.0
2015-Feb-04 19:31N 35°22' E 139°52'0 0.0
2015-Feb-04 18:31N 35°22' E 139°52'0 0.0
2015-Feb-04 17:28N 35°22' E 139°52'0 0.0
2015-Feb-04 16:28N 35°22' E 139°52'0 0.0
2015-Feb-04 15:31N 35°22' E 139°52'0 0.0
2015-Feb-04 14:31N 35°22' E 139°52'0 0.0
2015-Feb-04 13:31N 35°22' E 139°52'0 0.0
2015-Feb-04 12:31N 35°22' E 139°52'0 0.0
2015-Feb-04 11:31N 35°22' E 139°52'0 0.0
2015-Feb-04 10:22N 35°22' E 139°52'0 0.0
2015-Feb-04 09:31N 35°22' E 139°52'0 0.0
2015-Feb-04 08:31N 35°22' E 139°52'0 0.0
2015-Feb-04 07:19N 35°22' E 139°52'0 0.0
2015-Feb-04 06:25N 35°22' E 139°52'0 0.0
2015-Feb-04 05:31N 35°22' E 139°52'0 0.0
2015-Feb-04 04:31N 35°22' E 139°52'0 0.0
2015-Feb-04 03:28N 35°22' E 139°52'0 0.0
2015-Feb-04 02:31N 35°22' E 139°52'0 0.0
2015-Feb-04 01:31N 35°22' E 139°52'0 0.0
2015-Feb-04 00:31N 35°22' E 139°52'0 0.0
2015-Feb-03 23:31N 35°22' E 139°52'0 0.0
2015-Feb-03 22:31N 35°22' E 139°52'0 0.0
2015-Feb-03 21:16N 35°22' E 139°52'0 0.0
2015-Feb-03 20:28N 35°22' E 139°52'0 0.0
2015-Feb-03 19:28N 35°22' E 139°52'0 0.0
2015-Feb-03 18:28N 35°22' E 139°52'0 0.0
2015-Feb-03 17:31N 35°22' E 139°52'0 0.0
2015-Feb-03 16:31N 35°22' E 139°52'0 0.0
2015-Feb-03 15:31N 35°22' E 139°52'0 0.0
2015-Feb-03 14:31N 35°22' E 139°52'0 0.0
2015-Feb-03 13:25N 35°22' E 139°52'0 0.0
2015-Feb-03 12:28N 35°22' E 139°52'0 0.0
2015-Feb-03 11:31N 35°22' E 139°52'0 0.0
2015-Feb-03 10:31N 35°22' E 139°52'0 0.0
2015-Feb-03 09:25N 35°22' E 139°52'0 0.0
2015-Feb-03 08:31N 35°22' E 139°52'0 0.0
2015-Feb-03 07:28N 35°22' E 139°52'0 0.0
2015-Feb-03 06:31N 35°22' E 139°52'0 0.0
2015-Feb-03 05:25N 35°22' E 139°52'0 0.0
2015-Feb-03 04:25N 35°22' E 139°52'0 0.0
2015-Feb-03 03:28N 35°22' E 139°52'0 0.0
2015-Feb-03 02:31N 35°22' E 139°52'0 0.0
2015-Feb-03 01:31N 35°22' E 139°52'0 0.0
2015-Feb-03 00:28N 35°22' E 139°52'0 0.0
2015-Feb-02 23:28N 35°22' E 139°52'0 0.0
2015-Feb-02 22:16N 35°22' E 139°52'0 0.0
2015-Feb-02 21:31N 35°22' E 139°52'0 0.0
2015-Feb-02 20:31N 35°22' E 139°52'0 0.0
2015-Feb-02 19:31N 35°22' E 139°52'0 0.0
2015-Feb-02 18:31N 35°22' E 139°52'1 0.8
2015-Feb-02 17:33N 35°23' E 139°51'4 3.5
2015-Feb-02 16:33N 35°26' E 139°49'0 0.2
2015-Feb-02 15:25N 35°26' E 139°49'0 0.1
2015-Feb-02 14:28N 35°26' E 139°49'0 0.0
2015-Feb-02 13:31N 35°26' E 139°49'0 0.0
2015-Feb-02 12:31N 35°26' E 139°49'0 0.0
2015-Feb-02 11:31N 35°26' E 139°49'0 0.0
2015-Feb-02 10:31N 35°26' E 139°49'0 0.0
2015-Feb-02 09:31N 35°26' E 139°49'0 0.0
2015-Feb-02 08:31N 35°26' E 139°49'0 0.0
2015-Feb-02 07:31N 35°26' E 139°49'0 0.1
2015-Feb-02 06:31N 35°26' E 139°49'0 0.0
2015-Feb-02 05:31N 35°26' E 139°49'0 0.0
2015-Feb-02 04:09N 35°26' E 139°49'0 0.0
2015-Feb-02 03:32N 35°26' E 139°49'0 0.0
2015-Feb-02 02:32N 35°26' E 139°49'0 0.0
2015-Feb-02 01:34N 35°26' E 139°49'0 0.0
2015-Feb-02 00:32N 35°26' E 139°49'0 0.0
2015-Feb-01 23:33N 35°26' E 139°49'0 0.0
2015-Feb-01 22:33N 35°26' E 139°49'0 0.0
2015-Feb-01 21:33N 35°26' E 139°49'0 0.0
2015-Feb-01 20:33N 35°26' E 139°49'0 0.0
2015-Feb-01 19:31N 35°26' E 139°49'0 0.0
2015-Feb-01 18:30N 35°26' E 139°49'0 0.1
2015-Feb-01 17:34N 35°26' E 139°49'0 0.0
2015-Feb-01 16:33N 35°26' E 139°49'0 0.0
2015-Feb-01 15:34N 35°26' E 139°49'0 0.0
2015-Feb-01 14:25N 35°26' E 139°49'0 0.1
2015-Feb-01 13:33N 35°26' E 139°49'0 0.1
2015-Feb-01 12:31N 35°26' E 139°49'0 0.1
2015-Feb-01 11:33N 35°26' E 139°49'0 0.0
2015-Feb-01 10:32N 35°26' E 139°49'0 0.0
2015-Feb-01 09:33N 35°26' E 139°49'0 0.0
2015-Feb-01 08:33N 35°26' E 139°49'0 0.1
2015-Feb-01 07:33N 35°26' E 139°49'0 0.0
2015-Feb-01 06:33N 35°26' E 139°49'0 0.1
2015-Feb-01 05:33N 35°26' E 139°49'0 0.0
2015-Feb-01 04:33N 35°26' E 139°49'0 0.0
2015-Feb-01 03:27N 35°26' E 139°49'0 0.0
2015-Feb-01 02:33N 35°26' E 139°49'0 0.0
2015-Feb-01 01:33N 35°26' E 139°49'0 0.0
2015-Feb-01 00:30N 35°26' E 139°49'0 0.1
2015-Jan-31 23:33N 35°26' E 139°49'0 0.1
2015-Jan-31 22:34N 35°26' E 139°49'0 0.0
2015-Jan-31 21:25N 35°26' E 139°49'0 0.0
2015-Jan-31 20:27N 35°26' E 139°49'0 0.1
2015-Jan-31 19:33N 35°26' E 139°49'0 0.0
2015-Jan-31 18:27N 35°26' E 139°49'0 0.0
2015-Jan-31 17:28N 35°26' E 139°49'0 0.1
2015-Jan-31 16:25N 35°26' E 139°50'0 0.0
2015-Jan-31 15:34N 35°26' E 139°50'0 0.0
2015-Jan-31 14:22N 35°26' E 139°50'0 0.1
2015-Jan-31 13:34N 35°26' E 139°49'0 0.1
2015-Jan-31 12:33N 35°26' E 139°49'0 0.0
2015-Jan-31 11:31N 35°26' E 139°49'0 0.0
2015-Jan-31 10:33N 35°26' E 139°49'0 0.0
2015-Jan-31 09:33N 35°26' E 139°49'0 0.0
2015-Jan-31 08:33N 35°26' E 139°49'0 0.0
2015-Jan-31 07:30N 35°26' E 139°49'0 0.1
2015-Jan-31 06:32N 35°26' E 139°49'0 0.0
2015-Jan-31 05:33N 35°26' E 139°49'0 0.0
2015-Jan-31 04:32N 35°26' E 139°49'0 0.0
2015-Jan-31 03:32N 35°26' E 139°49'0 0.0
2015-Jan-31 02:32N 35°26' E 139°49'0 0.0
2015-Jan-31 01:32N 35°26' E 139°49'0 0.1
2015-Jan-31 00:32N 35°26' E 139°49'0 0.0
2015-Jan-30 22:26N 35°26' E 139°49'0 0.0
2015-Jan-30 21:32N 35°26' E 139°49'0 0.0
2015-Jan-30 20:32N 35°26' E 139°49'0 0.0
2015-Jan-30 19:32N 35°26' E 139°49'0 0.0
2015-Jan-30 18:26N 35°26' E 139°49'0 0.1
2015-Jan-30 17:32N 35°26' E 139°49'0 0.0
2015-Jan-30 16:32N 35°26' E 139°49'0 0.0
2015-Jan-30 15:32N 35°26' E 139°49'0 0.0
2015-Jan-30 14:32N 35°26' E 139°49'0 0.0
2015-Jan-30 13:32N 35°26' E 139°49'0 0.0
2015-Jan-30 12:29N 35°26' E 139°49'0 0.0
2015-Jan-30 11:29N 35°26' E 139°49'0 0.0
2015-Jan-30 10:32N 35°26' E 139°49'0 0.0
2015-Jan-30 09:32N 35°26' E 139°49'0 0.0
2015-Jan-30 08:32N 35°26' E 139°49'0 0.0
2015-Jan-30 07:32N 35°26' E 139°49'0 0.0
2015-Jan-30 06:32N 35°26' E 139°49'0 0.0
2015-Jan-30 05:32N 35°26' E 139°49'0 0.1
2015-Jan-30 04:32N 35°26' E 139°49'0 0.0
2015-Jan-30 03:32N 35°26' E 139°49'0 0.0
2015-Jan-30 02:26N 35°26' E 139°49'0 0.1
2015-Jan-30 01:32N 35°26' E 139°49'0 0.0
2015-Jan-30 00:32N 35°26' E 139°49'0 0.0
2015-Jan-29 23:32N 35°26' E 139°49'0 0.0
2015-Jan-29 22:32N 35°26' E 139°49'0 0.0
2015-Jan-29 21:32N 35°26' E 139°49'0 0.0
2015-Jan-29 20:32N 35°26' E 139°49'0 0.0
2015-Jan-29 19:32N 35°26' E 139°49'0 0.0
2015-Jan-29 18:32N 35°26' E 139°49'0 0.0
2015-Jan-29 17:32N 35°26' E 139°49'0 0.0
2015-Jan-29 16:32N 35°26' E 139°49'0 0.1
2015-Jan-29 15:32N 35°26' E 139°49'0 0.0
2015-Jan-29 14:32N 35°26' E 139°49'0 0.0
2015-Jan-29 13:23N 35°26' E 139°49'0 0.0
2015-Jan-29 12:32N 35°26' E 139°49'0 0.0
2015-Jan-29 11:29N 35°26' E 139°49'0 0.0
2015-Jan-29 10:32N 35°26' E 139°49'0 0.0
2015-Jan-29 09:29N 35°26' E 139°49'0 0.0
2015-Jan-29 08:29N 35°26' E 139°49'0 0.0
2015-Jan-29 07:32N 35°26' E 139°49'0 0.0
2015-Jan-29 06:32N 35°26' E 139°49'0 0.0
2015-Jan-29 05:32N 35°26' E 139°49'0 0.0
2015-Jan-29 04:32N 35°26' E 139°49'0 0.0
2015-Jan-29 03:11N 35°26' E 139°49'0 0.0
2015-Jan-29 02:29N 35°26' E 139°49'0 0.0
2015-Jan-29 01:32N 35°26' E 139°49'0 0.0
2015-Jan-29 00:32N 35°26' E 139°49'0 0.0
2015-Jan-28 23:32N 35°26' E 139°49'0 0.0
2015-Jan-28 22:32N 35°26' E 139°49'0 0.0
2015-Jan-28 21:32N 35°26' E 139°49'0 0.0
2015-Jan-28 20:32N 35°26' E 139°49'0 0.0
2015-Jan-28 19:32N 35°26' E 139°49'0 0.0
2015-Jan-28 18:32N 35°26' E 139°49'0 0.0
2015-Jan-28 17:32N 35°26' E 139°49'0 0.1
2015-Jan-28 16:32N 35°26' E 139°49'0 0.0
2015-Jan-28 15:29N 35°26' E 139°49'0 0.0
2015-Jan-28 14:29N 35°26' E 139°49'0 0.1
2015-Jan-28 13:32N 35°26' E 139°49'0 0.0
2015-Jan-28 12:32N 35°26' E 139°49'0 0.0
2015-Jan-28 11:20N 35°26' E 139°49'0 0.0
2015-Jan-28 10:32N 35°26' E 139°49'0 0.0
2015-Jan-28 09:29N 35°26' E 139°49'0 0.0
2015-Jan-28 08:32N 35°26' E 139°49'0 0.0
2015-Jan-28 07:32N 35°26' E 139°49'0 0.0
2015-Jan-28 06:32N 35°26' E 139°49'0 0.0
2015-Jan-28 05:32N 35°26' E 139°49'0 0.0
2015-Jan-28 04:23N 35°26' E 139°49'0 0.0
2015-Jan-28 03:32N 35°26' E 139°49'0 0.0
2015-Jan-28 02:26N 35°26' E 139°49'0 0.1
2015-Jan-28 01:32N 35°26' E 139°49'0 0.0
2015-Jan-28 00:32N 35°26' E 139°49'0 0.0
2015-Jan-27 23:32N 35°26' E 139°49'0 0.0
2015-Jan-27 22:32N 35°26' E 139°49'0 0.1
2015-Jan-27 21:32N 35°26' E 139°49'0 0.1
2015-Jan-27 20:32N 35°26' E 139°49'0 0.0
2015-Jan-27 19:32N 35°26' E 139°49'0 0.0
2015-Jan-27 18:32N 35°26' E 139°49'0 0.0
2015-Jan-27 17:29N 35°26' E 139°49'0 0.1
2015-Jan-27 16:32N 35°26' E 139°49'0 0.0
2015-Jan-27 15:32N 35°26' E 139°49'0 0.0
2015-Jan-27 14:32N 35°26' E 139°49'0 0.0
2015-Jan-27 13:32N 35°26' E 139°49'0 0.0
2015-Jan-27 12:32N 35°26' E 139°49'0 0.2
2015-Jan-27 11:32N 35°26' E 139°50'0 0.2
2015-Jan-27 10:32N 35°26' E 139°50'0 0.2
2015-Jan-27 09:32N 35°26' E 139°49'0 0.1
2015-Jan-27 08:32N 35°26' E 139°49'0 0.1
2015-Jan-27 07:29N 35°26' E 139°49'0 0.1
2015-Jan-27 06:32N 35°26' E 139°49'0 0.1
2015-Jan-27 05:32N 35°26' E 139°49'0 0.0
2015-Jan-27 04:32N 35°26' E 139°49'0 0.0
2015-Jan-27 03:29N 35°26' E 139°49'0 0.1
2015-Jan-27 02:26N 35°26' E 139°49'0 0.0
2015-Jan-27 01:20N 35°26' E 139°49'0 0.0
2015-Jan-27 00:32N 35°26' E 139°49'0 0.0
2015-Jan-26 23:32N 35°26' E 139°49'0 0.0
2015-Jan-26 22:29N 35°26' E 139°49'0 0.1
2015-Jan-26 21:32N 35°26' E 139°49'0 0.0
2015-Jan-26 20:29N 35°26' E 139°49'0 0.0
2015-Jan-26 19:32N 35°26' E 139°49'0 0.0
2015-Jan-26 18:32N 35°26' E 139°49'0 0.0
2015-Jan-26 17:29N 35°26' E 139°49'0 0.1
2015-Jan-26 16:32N 35°26' E 139°49'0 0.0
2015-Jan-26 15:32N 35°26' E 139°49'0 0.0
2015-Jan-26 14:29N 35°26' E 139°49'0 0.0
2015-Jan-26 13:26N 35°26' E 139°49'0 0.2
2015-Jan-26 12:32N 35°26' E 139°50'0 0.1
2015-Jan-26 11:32N 35°26' E 139°50'0 0.1
2015-Jan-26 10:32N 35°26' E 139°49'0 0.0
2015-Jan-26 09:32N 35°26' E 139°49'0 0.0
2015-Jan-26 08:26N 35°26' E 139°49'0 0.1
2015-Jan-26 07:32N 35°26' E 139°49'0 0.2
2015-Jan-26 06:29N 35°26' E 139°49'0 0.1
2015-Jan-26 05:32N 35°26' E 139°49'0 0.1
2015-Jan-26 04:32N 35°26' E 139°49'0 0.0
2015-Jan-26 03:32N 35°26' E 139°49'0 0.0
2015-Jan-26 02:32N 35°26' E 139°49'  

Dump ship's entire track history